BIRK/RKV METAR and TAF weather

Enter ICAO airport designator
Station Type Date Time Source
BIRK METAR 2019/06/26 22:00 UTC NOAA

BIRK 262200Z 20011KT 2500 -DZ BR BKN004 OVC006 10/08 Q1027


Station Type Date Time Source
BIRK Decoded METAR 2019/06/26 22:00 UTC NOAA

Reykjavik, Iceland (BIRK) 64-08N 021-54W 61M
Jun 26, 2019 - 06:00 PM EDT / 2019.06.26 2200 UTC
Wind: from the SSW (200 degrees) at 13 MPH (11 KT):0
Visibility: 1 mile(s):0
Sky conditions: overcast
Weather: light drizzle; mist
Temperature: 50 F (10 C)
Dew Point: 46 F (8 C)
Relative Humidity: 87%
Pressure (altimeter): 30.33 in. Hg (1027 hPa)
ob: BIRK 262200Z 20011KT 2500 -DZ BR BKN004 OVC006 10/08 Q1027
cycle: 22

Station Type Date Time Source
BIRK TAF 2019/06/26 21:45 UTC NOAA

TAF BIRK 261939Z 2621/2721 22012KT 8000 -DZ BKN007 OVC011 TX14/2715Z TN10/2706Z
TEMPO 2621/2721 1000 DZ FG OVC004

Example: see airport list